Flight Track Log - Related Links

Times and Time Zones

All times are in EDT time to prevent confusion due to time zone crossing. See the FSR411 flight status page for this flight to view local times or setup timezone preferences in your user account.

Time Position Orientation Groundspeed Altitude Reporting Facility
EDT Latitude Longitude Course Direction KTS MPH feet Rate Location/Type
Wed 05:48:27 PM 34.0361 -81.0783 31° Northeast 224 258 5,100  Level Jacksonville Center
Wed 05:49:27 PM 34.0981 -81.0342 31° Northeast 228 262 8,900 2,850 Climbing Jacksonville Center
Wed 05:50:27 PM 34.1636 -80.9400 50° Northeast 252 290 10,800 1,050 Climbing Jacksonville Center
Wed 05:51:27 PM 34.2331 -80.8481 48° Northeast 319 367 11,000 900 Climbing Jacksonville Center
Wed 05:52:27 PM 34.3083 -80.7356 51° Northeast 348 400 12,600 1,450 Climbing Jacksonville Center
Wed 05:53:27 PM 34.3775 -80.6408 48° Northeast 394 453 13,900 1,150 Climbing Jacksonville Center
Wed 05:54:27 PM 34.4569 -80.5256 50° Northeast 419 482 14,900 550 Climbing Jacksonville Center
Wed 05:55:27 PM 34.5361 -80.4225 47° Northeast 425 489 15,000 50 Climbing Jacksonville Center
Wed 05:56:27 PM 34.6131 -80.3094 50° Northeast 431 496 15,000  Level Jacksonville Center
Wed 05:58:05 PM 34.7344 -80.1308 50° Northeast 433 498 15,000  Level Washington Center
Wed 05:59:05 PM 34.8222 -80.0169 47° Northeast 426 490 15,000  Level Washington Center
Wed 06:00:05 PM 34.9025 -79.9325 41° Northeast 414 476 15,000  Level Washington Center
Wed 06:01:06 PM 34.9961 -79.8286 42° Northeast 408 470 15,000  Level Washington Center
Wed 06:02:05 PM 35.0742 -79.7439 42° Northeast 408 470 15,000  Level Washington Center
Wed 06:03:05 PM 35.1694 -79.6369 43° Northeast 408 470 15,000  Level Washington Center
Wed 06:04:06 PM 35.2536 -79.5597 37° Northeast 408 470 15,000 -253 Level Washington Center
Wed 06:04:40 PM 35.3197 -79.5172 28° Northeast 410 472 14,600 -1,082 Descending Washington Center
Wed 06:05:07 PM 35.3603 -79.4886 30° Northeast 398 458 13,900 -1,909 Descending Washington Center
Wed 06:05:46 PM 35.4242 -79.4486 27° Northeast 360 414 12,500 -1,862 Descending Washington Center
Wed 06:06:05 PM 35.4369 -79.4364 38° Northeast 361 415 12,100 -1,745 Descending Washington Center
Wed 06:06:41 PM 35.4883 -79.4031 28° Northeast 313 360 10,900 -2,000 Descending Washington Center
Wed 06:07:05 PM 35.5186 -79.3689 43° Northeast 328 377 10,100 -900 Descending Washington Center
Wed 06:07:41 PM 35.5514 -79.3142 54° Northeast 317 365 10,000 -98 Descending Washington Center
Wed 06:08:06 PM 35.5647 -79.2919 54° Northeast 305 351 10,000  Level Washington Center
Wed 06:08:43 PM 35.6022 -79.2272 55° Northeast 320 368 10,000  Level Washington Center
Wed 06:09:07 PM 35.6219 -79.1922 55° Northeast 319 367 10,000  Level Washington Center
Wed 06:09:50 PM 35.6594 -79.1300 53° Northeast 321 369 10,000  Level Washington Center
Wed 06:10:05 PM 35.6769 -79.1028 52° Northeast 324 373 10,000 -590 Level Washington Center
Wed 06:10:51 PM 35.7097 -79.0453 55° Northeast 312 359 9,400 -885 Descending Washington Center
Wed 06:11:06 PM 35.7250 -79.0231 50° Northeast 312 359 9,100 -1,026 Descending Washington Center
Wed 06:12:07 PM 35.7689 -78.9481 54° Northeast 291 335 8,100 -545 Descending Washington Center
Wed 06:13:07 PM 35.8025 -78.8650 63° Northeast 270 311 8,000 -61 Descending Washington Center
Wed 06:13:46 PM 35.7958 -78.8008 97° East 272 313 8,000  Level Washington Center
Wed 06:14:07 PM 35.8028 -78.7753 71° East 259 298 8,000 -1,075 Level Washington Center
Wed 06:14:53 PM 35.8233 -78.7147 67° East 248 285 6,800 -1,500 Descending Washington Center
Wed 06:15:47 PM 35.8581 -78.6572 53° Northeast 230 265 5,500 -1,289 Descending Washington Center
Wed 06:16:54 PM 35.9117 -78.6003 41° Northeast 218 251 4,200 -756 Descending Washington Center
Wed 06:17:54 PM 35.9600 -78.5842 15° North 202 232 3,900 -694 Descending Washington Center
Wed 06:18:55 PM 35.9881 -78.6339 305° West 173 199 2,800 -942 Descending Washington Center
Wed 06:19:55 PM 35.9619 -78.6767 233° Southwest 156 180 2,000 -414 Descending Washington Center
Wed 06:20:51 PM 35.9317 -78.7139 225° Southwest 163 188 2,000 -310 Level Washington Center
Wed 06:21:51 PM 35.9081 -78.7464 228° Southwest 124 143 1,400 -645 Descending Washington Center
Wed 06:22:52 PM 35.8842 -78.7736 223° Southwest 112 129 700 -689 Descending Washington Center
Wed 06:24:00 PM 35.8667 -78.7833 243° Southwest  Level FlightAware Approximate

Login

Don't have an account? Register now (free) for customized features, flight alerts, and more!